sensor_id;sensor_type;location;lat;lon;timestamp;temperature;humidity
55173;DHT22;41061;52.822;6.860;2022-11-15T00:01:49;7.80;99.90
55173;DHT22;41061;52.822;6.860;2022-11-15T00:04:15;7.80;99.90
55173;DHT22;41061;52.822;6.860;2022-11-15T00:06:41;7.70;99.90
55173;DHT22;41061;52.822;6.860;2022-11-15T00:09:07;7.70;99.90
55173;DHT22;41061;52.822;6.860;2022-11-15T00:11:33;7.70;99.90
55173;DHT22;41061;52.822;6.860;2022-11-15T00:13:59;7.70;99.90
55173;DHT22;41061;52.822;6.860;2022-11-15T00:16:27;7.70;99.90
55173;DHT22;41061;52.822;6.860;2022-11-15T00:18:53;7.70;99.90
55173;DHT22;41061;52.822;6.860;2022-11-15T00:21:19;7.90;99.90
55173;DHT22;41061;52.822;6.860;2022-11-15T00:23:45;7.90;99.90
55173;DHT22;41061;52.822;6.860;2022-11-15T00:26:12;7.90;99.90
55173;DHT22;41061;52.822;6.860;2022-11-15T00:28:39;7.90;99.90
55173;DHT22;41061;52.822;6.860;2022-11-15T00:31:07;8.00;99.90
55173;DHT22;41061;52.822;6.860;2022-11-15T00:33:33;8.00;99.90
55173;DHT22;41061;52.822;6.860;2022-11-15T00:36:09;7.90;99.90
55173;DHT22;41061;52.822;6.860;2022-11-15T00:38:36;8.00;99.90
55173;DHT22;41061;52.822;6.860;2022-11-15T00:41:04;8.00;99.90
55173;DHT22;41061;52.822;6.860;2022-11-15T00:43:30;8.00;99.90
55173;DHT22;41061;52.822;6.860;2022-11-15T00:45:56;8.00;99.90
55173;DHT22;41061;52.822;6.860;2022-11-15T00:48:22;8.00;99.90
55173;DHT22;41061;52.822;6.860;2022-11-15T00:50:48;8.10;99.90
55173;DHT22;41061;52.822;6.860;2022-11-15T00:53:15;8.00;99.90
55173;DHT22;41061;52.822;6.860;2022-11-15T00:55:40;8.00;99.90
55173;DHT22;41061;52.822;6.860;2022-11-15T00:58:06;8.10;99.90
55173;DHT22;41061;52.822;6.860;2022-11-15T01:00:32;8.10;99.90
55173;DHT22;41061;52.822;6.860;2022-11-15T01:02:59;8.10;99.90
55173;DHT22;41061;52.822;6.860;2022-11-15T01:05:25;8.10;99.90
55173;DHT22;41061;52.822;6.860;2022-11-15T01:07:55;8.10;99.90
55173;DHT22;41061;52.822;6.860;2022-11-15T01:10:21;8.10;99.90
55173;DHT22;41061;52.822;6.860;2022-11-15T01:12:48;8.20;99.90
55173;DHT22;41061;52.822;6.860;2022-11-15T01:15:13;8.20;99.90
55173;DHT22;41061;52.822;6.860;2022-11-15T01:17:39;8.20;99.90
55173;DHT22;41061;52.822;6.860;2022-11-15T01:20:05;8.20;99.90
55173;DHT22;41061;52.822;6.860;2022-11-15T01:22:31;8.20;99.90
55173;DHT22;41061;52.822;6.860;2022-11-15T01:24:57;8.20;99.90
55173;DHT22;41061;52.822;6.860;2022-11-15T01:27:22;8.20;99.90
55173;DHT22;41061;52.822;6.860;2022-11-15T01:29:48;8.20;99.90
55173;DHT22;41061;52.822;6.860;2022-11-15T01:32:13;8.20;99.90
55173;DHT22;41061;52.822;6.860;2022-11-15T01:34:39;8.20;99.90
55173;DHT22;41061;52.822;6.860;2022-11-15T01:37:05;8.20;99.90
55173;DHT22;41061;52.822;6.860;2022-11-15T01:39:30;8.30;99.90
55173;DHT22;41061;52.822;6.860;2022-11-15T01:41:56;8.20;99.90
55173;DHT22;41061;52.822;6.860;2022-11-15T01:44:36;8.20;99.90
55173;DHT22;41061;52.822;6.860;2022-11-15T01:47:11;8.20;99.90
55173;DHT22;41061;52.822;6.860;2022-11-15T01:49:40;8.20;99.90
55173;DHT22;41061;52.822;6.860;2022-11-15T01:52:10;8.20;99.90
55173;DHT22;41061;52.822;6.860;2022-11-15T01:54:37;8.20;99.90
55173;DHT22;41061;52.822;6.860;2022-11-15T01:57:07;8.20;99.90
55173;DHT22;41061;52.822;6.860;2022-11-15T01:59:37;8.20;99.90
55173;DHT22;41061;52.822;6.860;2022-11-15T02:02:03;8.30;99.90
55173;DHT22;41061;52.822;6.860;2022-11-15T02:04:32;8.20;99.90
55173;DHT22;41061;52.822;6.860;2022-11-15T02:06:58;8.20;99.90
55173;DHT22;41061;52.822;6.860;2022-11-15T02:09:25;8.20;99.90
55173;DHT22;41061;52.822;6.860;2022-11-15T02:11:51;8.30;99.90
55173;DHT22;41061;52.822;6.860;2022-11-15T02:14:20;8.30;99.90
55173;DHT22;41061;52.822;6.860;2022-11-15T02:16:58;8.30;99.90
55173;DHT22;41061;52.822;6.860;2022-11-15T02:28:34;8.30;99.90
55173;DHT22;41061;52.822;6.860;2022-11-15T02:34:40;8.30;99.90
55173;DHT22;41061;52.822;6.860;2022-11-15T02:39:49;8.40;99.90
55173;DHT22;41061;52.822;6.860;2022-11-15T02:42:25;8.40;99.90
55173;DHT22;41061;52.822;6.860;2022-11-15T02:45:14;8.30;99.90
55173;DHT22;41061;52.822;6.860;2022-11-15T02:47:44;8.40;99.90
55173;DHT22;41061;52.822;6.860;2022-11-15T02:50:14;8.40;99.90
55173;DHT22;41061;52.822;6.860;2022-11-15T02:52:43;8.40;99.90
55173;DHT22;41061;52.822;6.860;2022-11-15T02:55:29;8.40;99.90
55173;DHT22;41061;52.822;6.860;2022-11-15T03:09:21;8.50;99.90
55173;DHT22;41061;52.822;6.860;2022-11-15T03:11:44;8.40;99.90
55173;DHT22;41061;52.822;6.860;2022-11-15T03:14:16;8.50;99.90
55173;DHT22;41061;52.822;6.860;2022-11-15T03:20:03;8.50;99.90
55173;DHT22;41061;52.822;6.860;2022-11-15T03:22:33;8.50;99.90
55173;DHT22;41061;52.822;6.860;2022-11-15T03:25:04;8.50;99.90
55173;DHT22;41061;52.822;6.860;2022-11-15T03:27:35;8.50;99.90
55173;DHT22;41061;52.822;6.860;2022-11-15T03:30:05;8.60;99.90
55173;DHT22;41061;52.822;6.860;2022-11-15T03:32:36;8.60;99.90
55173;DHT22;41061;52.822;6.860;2022-11-15T03:35:09;8.60;99.90
55173;DHT22;41061;52.822;6.860;2022-11-15T03:37:51;8.60;99.90
55173;DHT22;41061;52.822;6.860;2022-11-15T03:40:22;8.60;99.90
55173;DHT22;41061;52.822;6.860;2022-11-15T03:43:10;8.60;99.90
55173;DHT22;41061;52.822;6.860;2022-11-15T03:45:45;8.60;99.90
55173;DHT22;41061;52.822;6.860;2022-11-15T03:48:18;8.70;99.90
55173;DHT22;41061;52.822;6.860;2022-11-15T03:50:45;8.60;99.90
55173;DHT22;41061;52.822;6.860;2022-11-15T03:53:12;8.60;99.90
55173;DHT22;41061;52.822;6.860;2022-11-15T03:55:38;8.70;99.90
55173;DHT22;41061;52.822;6.860;2022-11-15T03:58:03;8.70;99.90
55173;DHT22;41061;52.822;6.860;2022-11-15T04:00:29;8.70;99.90
55173;DHT22;41061;52.822;6.860;2022-11-15T04:02:55;8.70;99.90
55173;DHT22;41061;52.822;6.860;2022-11-15T04:05:21;8.70;99.90
55173;DHT22;41061;52.822;6.860;2022-11-15T04:07:46;8.70;99.90
55173;DHT22;41061;52.822;6.860;2022-11-15T04:10:14;8.70;99.90
55173;DHT22;41061;52.822;6.860;2022-11-15T04:12:42;8.70;99.90
55173;DHT22;41061;52.822;6.860;2022-11-15T04:15:13;8.70;99.90
55173;DHT22;41061;52.822;6.860;2022-11-15T04:17:44;8.70;99.90
55173;DHT22;41061;52.822;6.860;2022-11-15T04:20:14;8.70;99.90
55173;DHT22;41061;52.822;6.860;2022-11-15T04:22:59;8.70;99.90
55173;DHT22;41061;52.822;6.860;2022-11-15T04:25:45;8.70;99.90
55173;DHT22;41061;52.822;6.860;2022-11-15T04:28:11;8.70;99.90
55173;DHT22;41061;52.822;6.860;2022-11-15T04:30:37;8.80;99.90
55173;DHT22;41061;52.822;6.860;2022-11-15T04:33:03;8.80;99.90
55173;DHT22;41061;52.822;6.860;2022-11-15T04:35:29;8.80;99.90
55173;DHT22;41061;52.822;6.860;2022-11-15T04:37:56;8.80;99.90
55173;DHT22;41061;52.822;6.860;2022-11-15T04:40:22;8.90;99.90
55173;DHT22;41061;52.822;6.860;2022-11-15T04:42:48;8.90;99.90
55173;DHT22;41061;52.822;6.860;2022-11-15T04:45:14;8.90;99.90
55173;DHT22;41061;52.822;6.860;2022-11-15T04:47:40;8.90;99.90
55173;DHT22;41061;52.822;6.860;2022-11-15T04:50:08;8.90;99.90
55173;DHT22;41061;52.822;6.860;2022-11-15T04:52:34;9.00;99.90
55173;DHT22;41061;52.822;6.860;2022-11-15T04:54:59;9.00;99.90
55173;DHT22;41061;52.822;6.860;2022-11-15T04:57:25;9.00;99.90
55173;DHT22;41061;52.822;6.860;2022-11-15T04:59:50;9.10;99.90
55173;DHT22;41061;52.822;6.860;2022-11-15T05:02:16;9.10;99.90
55173;DHT22;41061;52.822;6.860;2022-11-15T05:04:42;9.10;99.90
55173;DHT22;41061;52.822;6.860;2022-11-15T05:07:08;9.10;99.90
55173;DHT22;41061;52.822;6.860;2022-11-15T05:09:33;9.20;99.90
55173;DHT22;41061;52.822;6.860;2022-11-15T05:11:59;9.20;99.90
55173;DHT22;41061;52.822;6.860;2022-11-15T05:14:25;9.20;99.90
55173;DHT22;41061;52.822;6.860;2022-11-15T05:16:50;9.30;99.90
55173;DHT22;41061;52.822;6.860;2022-11-15T05:19:16;9.30;99.90
55173;DHT22;41061;52.822;6.860;2022-11-15T05:21:41;9.30;99.90
55173;DHT22;41061;52.822;6.860;2022-11-15T05:24:10;9.30;99.90
55173;DHT22;41061;52.822;6.860;2022-11-15T05:26:36;9.30;99.90
55173;DHT22;41061;52.822;6.860;2022-11-15T05:29:02;9.40;99.90
55173;DHT22;41061;52.822;6.860;2022-11-15T05:31:28;9.40;99.90
55173;DHT22;41061;52.822;6.860;2022-11-15T05:33:55;9.40;99.90
55173;DHT22;41061;52.822;6.860;2022-11-15T05:36:29;9.50;99.90
55173;DHT22;41061;52.822;6.860;2022-11-15T05:38:56;9.50;99.90
55173;DHT22;41061;52.822;6.860;2022-11-15T05:41:32;9.60;99.90
55173;DHT22;41061;52.822;6.860;2022-11-15T05:44:00;9.60;99.90
55173;DHT22;41061;52.822;6.860;2022-11-15T05:46:26;9.70;99.90
55173;DHT22;41061;52.822;6.860;2022-11-15T05:48:53;9.70;99.90
55173;DHT22;41061;52.822;6.860;2022-11-15T05:51:21;9.70;99.90
55173;DHT22;41061;52.822;6.860;2022-11-15T05:53:48;9.70;99.90
55173;DHT22;41061;52.822;6.860;2022-11-15T05:56:14;9.80;99.90
55173;DHT22;41061;52.822;6.860;2022-11-15T05:58:40;9.80;99.90
55173;DHT22;41061;52.822;6.860;2022-11-15T06:01:07;9.90;99.90
55173;DHT22;41061;52.822;6.860;2022-11-15T06:03:32;9.90;99.90
55173;DHT22;41061;52.822;6.860;2022-11-15T06:05:58;10.00;99.90
55173;DHT22;41061;52.822;6.860;2022-11-15T06:08:24;10.00;99.90
55173;DHT22;41061;52.822;6.860;2022-11-15T06:10:49;10.00;99.90
55173;DHT22;41061;52.822;6.860;2022-11-15T06:13:15;10.00;99.90
55173;DHT22;41061;52.822;6.860;2022-11-15T06:15:41;10.00;99.90
55173;DHT22;41061;52.822;6.860;2022-11-15T06:18:06;10.00;99.90
55173;DHT22;41061;52.822;6.860;2022-11-15T06:20:32;10.10;99.90
55173;DHT22;41061;52.822;6.860;2022-11-15T06:23:03;10.10;99.90
55173;DHT22;41061;52.822;6.860;2022-11-15T06:25:30;10.10;99.90
55173;DHT22;41061;52.822;6.860;2022-11-15T06:27:59;10.20;99.90
55173;DHT22;41061;52.822;6.860;2022-11-15T06:30:27;10.20;99.90
55173;DHT22;41061;52.822;6.860;2022-11-15T06:32:59;10.20;99.90
55173;DHT22;41061;52.822;6.860;2022-11-15T06:35:26;10.30;99.90
55173;DHT22;41061;52.822;6.860;2022-11-15T06:37:51;10.20;99.90
55173;DHT22;41061;52.822;6.860;2022-11-15T06:40:17;10.30;99.90
55173;DHT22;41061;52.822;6.860;2022-11-15T06:42:43;10.30;99.90
55173;DHT22;41061;52.822;6.860;2022-11-15T06:45:08;10.30;99.90
55173;DHT22;41061;52.822;6.860;2022-11-15T06:47:34;10.30;99.90
55173;DHT22;41061;52.822;6.860;2022-11-15T06:50:00;10.30;99.90
55173;DHT22;41061;52.822;6.860;2022-11-15T06:52:26;10.40;99.90
55173;DHT22;41061;52.822;6.860;2022-11-15T06:54:57;10.40;99.90
55173;DHT22;41061;52.822;6.860;2022-11-15T06:57:23;10.40;99.90
55173;DHT22;41061;52.822;6.860;2022-11-15T06:59:49;10.40;99.90
55173;DHT22;41061;52.822;6.860;2022-11-15T07:02:14;10.40;99.90
55173;DHT22;41061;52.822;6.860;2022-11-15T07:04:40;10.40;99.90
55173;DHT22;41061;52.822;6.860;2022-11-15T07:07:06;10.50;99.90
55173;DHT22;41061;52.822;6.860;2022-11-15T07:09:32;10.50;99.90
55173;DHT22;41061;52.822;6.860;2022-11-15T07:11:57;10.50;99.90
55173;DHT22;41061;52.822;6.860;2022-11-15T07:14:23;10.50;99.90
55173;DHT22;41061;52.822;6.860;2022-11-15T07:16:49;10.60;99.90
55173;DHT22;41061;52.822;6.860;2022-11-15T07:19:14;10.60;99.90
55173;DHT22;41061;52.822;6.860;2022-11-15T07:21:40;10.60;99.90
55173;DHT22;41061;52.822;6.860;2022-11-15T07:24:06;10.60;99.90
55173;DHT22;41061;52.822;6.860;2022-11-15T07:26:32;10.60;99.90
55173;DHT22;41061;52.822;6.860;2022-11-15T07:28:57;10.60;99.90
55173;DHT22;41061;52.822;6.860;2022-11-15T07:31:23;10.60;99.90
55173;DHT22;41061;52.822;6.860;2022-11-15T07:33:49;10.60;99.90
55173;DHT22;41061;52.822;6.860;2022-11-15T07:36:14;10.70;99.90
55173;DHT22;41061;52.822;6.860;2022-11-15T07:38:40;10.70;99.90
55173;DHT22;41061;52.822;6.860;2022-11-15T07:41:06;10.70;99.90
55173;DHT22;41061;52.822;6.860;2022-11-15T07:43:32;10.80;99.90
55173;DHT22;41061;52.822;6.860;2022-11-15T07:46:04;10.80;99.90
55173;DHT22;41061;52.822;6.860;2022-11-15T07:48:30;10.90;99.90
55173;DHT22;41061;52.822;6.860;2022-11-15T07:50:56;10.90;99.90
55173;DHT22;41061;52.822;6.860;2022-11-15T07:53:21;10.90;99.90
55173;DHT22;41061;52.822;6.860;2022-11-15T07:55:47;10.90;99.90
55173;DHT22;41061;52.822;6.860;2022-11-15T07:58:13;10.90;99.90
55173;DHT22;41061;52.822;6.860;2022-11-15T08:00:39;10.90;99.90
55173;DHT22;41061;52.822;6.860;2022-11-15T08:03:09;10.90;99.90
55173;DHT22;41061;52.822;6.860;2022-11-15T08:05:38;11.00;99.90
55173;DHT22;41061;52.822;6.860;2022-11-15T08:08:04;11.00;99.90
55173;DHT22;41061;52.822;6.860;2022-11-15T08:10:30;11.00;99.90
55173;DHT22;41061;52.822;6.860;2022-11-15T08:13:04;11.10;99.90
55173;DHT22;41061;52.822;6.860;2022-11-15T08:15:31;11.10;99.90
55173;DHT22;41061;52.822;6.860;2022-11-15T08:17:58;11.10;99.90
55173;DHT22;41061;52.822;6.860;2022-11-15T08:20:25;11.10;99.90
55173;DHT22;41061;52.822;6.860;2022-11-15T08:22:51;11.20;99.90
55173;DHT22;41061;52.822;6.860;2022-11-15T08:25:17;11.20;99.90
55173;DHT22;41061;52.822;6.860;2022-11-15T08:27:44;11.30;99.90
55173;DHT22;41061;52.822;6.860;2022-11-15T08:30:10;11.30;99.90
55173;DHT22;41061;52.822;6.860;2022-11-15T08:32:36;11.30;99.90
55173;DHT22;41061;52.822;6.860;2022-11-15T08:35:02;11.40;99.90
55173;DHT22;41061;52.822;6.860;2022-11-15T08:37:28;11.40;99.90
55173;DHT22;41061;52.822;6.860;2022-11-15T08:39:54;11.30;99.90
55173;DHT22;41061;52.822;6.860;2022-11-15T08:42:19;11.40;99.90
55173;DHT22;41061;52.822;6.860;2022-11-15T08:44:45;11.40;99.90
55173;DHT22;41061;52.822;6.860;2022-11-15T08:47:11;11.40;99.90
55173;DHT22;41061;52.822;6.860;2022-11-15T08:49:37;11.40;99.90
55173;DHT22;41061;52.822;6.860;2022-11-15T08:52:03;11.40;99.90
55173;DHT22;41061;52.822;6.860;2022-11-15T08:54:29;11.40;99.90
55173;DHT22;41061;52.822;6.860;2022-11-15T08:56:55;11.40;99.90
55173;DHT22;41061;52.822;6.860;2022-11-15T08:59:20;11.40;99.90
55173;DHT22;41061;52.822;6.860;2022-11-15T09:01:46;11.40;99.90
55173;DHT22;41061;52.822;6.860;2022-11-15T09:04:12;11.40;99.90
55173;DHT22;41061;52.822;6.860;2022-11-15T09:06:38;11.40;99.90
55173;DHT22;41061;52.822;6.860;2022-11-15T09:09:03;11.30;99.90
55173;DHT22;41061;52.822;6.860;2022-11-15T09:11:29;11.40;99.90
55173;DHT22;41061;52.822;6.860;2022-11-15T09:13:55;11.40;99.90
55173;DHT22;41061;52.822;6.860;2022-11-15T09:16:21;11.40;99.90
55173;DHT22;41061;52.822;6.860;2022-11-15T09:18:46;11.50;99.90
55173;DHT22;41061;52.822;6.860;2022-11-15T09:21:12;11.50;99.90
55173;DHT22;41061;52.822;6.860;2022-11-15T09:23:38;11.50;99.90
55173;DHT22;41061;52.822;6.860;2022-11-15T09:26:04;11.50;99.90
55173;DHT22;41061;52.822;6.860;2022-11-15T09:28:31;11.50;99.90
55173;DHT22;41061;52.822;6.860;2022-11-15T09:30:59;11.60;99.90
55173;DHT22;41061;52.822;6.860;2022-11-15T09:33:26;11.60;99.90
55173;DHT22;41061;52.822;6.860;2022-11-15T09:35:51;11.60;99.90
55173;DHT22;41061;52.822;6.860;2022-11-15T09:38:17;11.60;99.90
55173;DHT22;41061;52.822;6.860;2022-11-15T09:40:43;11.70;99.90
55173;DHT22;41061;52.822;6.860;2022-11-15T09:48:39;11.70;99.90
55173;DHT22;41061;52.822;6.860;2022-11-15T09:51:14;11.70;99.90
55173;DHT22;41061;52.822;6.860;2022-11-15T09:56:32;11.80;99.90
55173;DHT22;41061;52.822;6.860;2022-11-15T10:04:27;11.80;99.90
55173;DHT22;41061;52.822;6.860;2022-11-15T10:12:12;11.80;99.90
55173;DHT22;41061;52.822;6.860;2022-11-15T10:14:39;11.90;99.90
55173;DHT22;41061;52.822;6.860;2022-11-15T10:22:45;11.80;99.90
55173;DHT22;41061;52.822;6.860;2022-11-15T10:25:16;11.80;99.90
55173;DHT22;41061;52.822;6.860;2022-11-15T10:27:44;11.80;99.90
55173;DHT22;41061;52.822;6.860;2022-11-15T10:30:16;11.90;99.90
55173;DHT22;41061;52.822;6.860;2022-11-15T10:32:44;11.90;99.90
55173;DHT22;41061;52.822;6.860;2022-11-15T10:35:26;12.00;99.90
55173;DHT22;41061;52.822;6.860;2022-11-15T10:38:04;12.00;99.90
55173;DHT22;41061;52.822;6.860;2022-11-15T10:40:30;11.90;99.90
55173;DHT22;41061;52.822;6.860;2022-11-15T10:43:16;11.90;99.90
55173;DHT22;41061;52.822;6.860;2022-11-15T10:45:43;11.90;99.90
55173;DHT22;41061;52.822;6.860;2022-11-15T10:50:47;12.00;99.90
55173;DHT22;41061;52.822;6.860;2022-11-15T10:53:42;12.00;99.90
55173;DHT22;41061;52.822;6.860;2022-11-15T10:56:13;12.10;99.90
55173;DHT22;41061;52.822;6.860;2022-11-15T10:58:59;12.20;99.90
55173;DHT22;41061;52.822;6.860;2022-11-15T11:01:28;12.30;99.90
55173;DHT22;41061;52.822;6.860;2022-11-15T11:06:28;12.30;99.90
55173;DHT22;41061;52.822;6.860;2022-11-15T11:11:20;12.30;99.90
55173;DHT22;41061;52.822;6.860;2022-11-15T11:13:45;12.40;99.90
55173;DHT22;41061;52.822;6.860;2022-11-15T11:24:15;12.80;99.90
55173;DHT22;41061;52.822;6.860;2022-11-15T11:27:05;12.90;99.90
55173;DHT22;41061;52.822;6.860;2022-11-15T11:30:09;13.00;99.90
55173;DHT22;41061;52.822;6.860;2022-11-15T11:32:49;13.00;99.90
55173;DHT22;41061;52.822;6.860;2022-11-15T11:36:03;13.00;99.90
55173;DHT22;41061;52.822;6.860;2022-11-15T11:46:30;12.90;99.90
55173;DHT22;41061;52.822;6.860;2022-11-15T11:49:15;12.90;99.90
55173;DHT22;41061;52.822;6.860;2022-11-15T11:51:46;12.90;99.90
55173;DHT22;41061;52.822;6.860;2022-11-15T11:54:22;13.00;99.90
55173;DHT22;41061;52.822;6.860;2022-11-15T11:56:50;13.10;99.90
55173;DHT22;41061;52.822;6.860;2022-11-15T11:59:50;13.10;99.90
55173;DHT22;41061;52.822;6.860;2022-11-15T12:02:29;13.00;99.90
55173;DHT22;41061;52.822;6.860;2022-11-15T12:05:03;13.00;99.90
55173;DHT22;41061;52.822;6.860;2022-11-15T12:07:34;13.00;99.90
55173;DHT22;41061;52.822;6.860;2022-11-15T12:10:23;12.90;99.90
55173;DHT22;41061;52.822;6.860;2022-11-15T12:15:58;12.90;99.90
55173;DHT22;41061;52.822;6.860;2022-11-15T12:18:25;12.90;99.90
55173;DHT22;41061;52.822;6.860;2022-11-15T12:20:54;12.90;99.90
55173;DHT22;41061;52.822;6.860;2022-11-15T12:23:27;13.00;99.90
55173;DHT22;41061;52.822;6.860;2022-11-15T12:26:05;13.00;99.90
55173;DHT22;41061;52.822;6.860;2022-11-15T12:28:41;13.00;99.90
55173;DHT22;41061;52.822;6.860;2022-11-15T12:31:36;13.00;99.90
55173;DHT22;41061;52.822;6.860;2022-11-15T12:36:46;13.10;99.90
55173;DHT22;41061;52.822;6.860;2022-11-15T12:39:13;13.10;99.90
55173;DHT22;41061;52.822;6.860;2022-11-15T12:41:41;13.10;99.90
55173;DHT22;41061;52.822;6.860;2022-11-15T12:44:12;13.10;99.90
55173;DHT22;41061;52.822;6.860;2022-11-15T12:59:54;13.20;99.90
55173;DHT22;41061;52.822;6.860;2022-11-15T13:17:51;13.40;99.90
55173;DHT22;41061;52.822;6.860;2022-11-15T13:22:52;13.30;99.90
55173;DHT22;41061;52.822;6.860;2022-11-15T13:30:54;13.20;99.90
55173;DHT22;41061;52.822;6.860;2022-11-15T13:33:35;13.10;99.90
55173;DHT22;41061;52.822;6.860;2022-11-15T13:36:09;13.10;99.90
55173;DHT22;41061;52.822;6.860;2022-11-15T13:38:40;13.10;99.90
55173;DHT22;41061;52.822;6.860;2022-11-15T13:41:19;13.00;99.90
55173;DHT22;41061;52.822;6.860;2022-11-15T13:43:46;13.00;99.90
55173;DHT22;41061;52.822;6.860;2022-11-15T13:46:18;12.90;99.90
55173;DHT22;41061;52.822;6.860;2022-11-15T13:48:46;12.90;99.90
55173;DHT22;41061;52.822;6.860;2022-11-15T13:51:23;12.90;99.90
55173;DHT22;41061;52.822;6.860;2022-11-15T13:53:54;12.90;99.90
55173;DHT22;41061;52.822;6.860;2022-11-15T13:56:21;12.80;99.90
55173;DHT22;41061;52.822;6.860;2022-11-15T13:58:48;12.80;99.90
55173;DHT22;41061;52.822;6.860;2022-11-15T14:01:19;12.80;99.90
55173;DHT22;41061;52.822;6.860;2022-11-15T14:03:52;12.80;99.90
55173;DHT22;41061;52.822;6.860;2022-11-15T14:06:20;12.80;99.90
55173;DHT22;41061;52.822;6.860;2022-11-15T14:11:34;12.70;99.90
55173;DHT22;41061;52.822;6.860;2022-11-15T14:16:40;12.80;99.90
55173;DHT22;41061;52.822;6.860;2022-11-15T14:19:12;12.70;99.90
55173;DHT22;41061;52.822;6.860;2022-11-15T14:22:19;12.70;99.90
55173;DHT22;41061;52.822;6.860;2022-11-15T14:25:14;12.70;99.90
55173;DHT22;41061;52.822;6.860;2022-11-15T14:27:41;12.60;99.90
55173;DHT22;41061;52.822;6.860;2022-11-15T14:30:14;12.60;99.90
55173;DHT22;41061;52.822;6.860;2022-11-15T14:32:45;12.50;99.90
55173;DHT22;41061;52.822;6.860;2022-11-15T14:35:16;12.40;99.90
55173;DHT22;41061;52.822;6.860;2022-11-15T14:37:43;12.40;99.90
55173;DHT22;41061;52.822;6.860;2022-11-15T14:40:15;12.40;99.90
55173;DHT22;41061;52.822;6.860;2022-11-15T14:42:43;12.30;99.90
55173;DHT22;41061;52.822;6.860;2022-11-15T14:45:15;12.30;99.90
55173;DHT22;41061;52.822;6.860;2022-11-15T14:47:41;12.30;99.90
55173;DHT22;41061;52.822;6.860;2022-11-15T14:50:18;12.20;99.90
55173;DHT22;41061;52.822;6.860;2022-11-15T14:52:45;12.20;99.90
55173;DHT22;41061;52.822;6.860;2022-11-15T14:55:31;12.20;99.90
55173;DHT22;41061;52.822;6.860;2022-11-15T14:57:59;12.10;99.90
55173;DHT22;41061;52.822;6.860;2022-11-15T15:00:27;12.10;99.90
55173;DHT22;41061;52.822;6.860;2022-11-15T15:02:53;12.10;99.90
55173;DHT22;41061;52.822;6.860;2022-11-15T15:05:24;12.00;99.90
55173;DHT22;41061;52.822;6.860;2022-11-15T15:07:50;12.00;99.90
55173;DHT22;41061;52.822;6.860;2022-11-15T15:10:18;11.90;99.90
55173;DHT22;41061;52.822;6.860;2022-11-15T15:12:44;11.80;99.90
55173;DHT22;41061;52.822;6.860;2022-11-15T15:15:19;11.80;99.90
55173;DHT22;41061;52.822;6.860;2022-11-15T15:17:47;11.80;99.90
55173;DHT22;41061;52.822;6.860;2022-11-15T15:20:13;11.80;99.90
55173;DHT22;41061;52.822;6.860;2022-11-15T15:22:39;11.70;99.90
55173;DHT22;41061;52.822;6.860;2022-11-15T15:25:23;11.70;99.90
55173;DHT22;41061;52.822;6.860;2022-11-15T15:27:52;11.70;99.90
55173;DHT22;41061;52.822;6.860;2022-11-15T15:30:18;11.60;99.90
55173;DHT22;41061;52.822;6.860;2022-11-15T15:32:44;11.60;99.90
55173;DHT22;41061;52.822;6.860;2022-11-15T15:35:13;11.60;99.90
55173;DHT22;41061;52.822;6.860;2022-11-15T15:37:40;11.60;99.90
55173;DHT22;41061;52.822;6.860;2022-11-15T15:40:18;11.60;99.90
55173;DHT22;41061;52.822;6.860;2022-11-15T15:42:45;11.50;99.90
55173;DHT22;41061;52.822;6.860;2022-11-15T15:45:12;11.50;99.90
55173;DHT22;41061;52.822;6.860;2022-11-15T15:47:38;11.50;99.90
55173;DHT22;41061;52.822;6.860;2022-11-15T15:50:26;11.40;99.90
55173;DHT22;41061;52.822;6.860;2022-11-15T15:52:54;11.40;99.90
55173;DHT22;41061;52.822;6.860;2022-11-15T15:55:20;11.40;99.90
55173;DHT22;41061;52.822;6.860;2022-11-15T15:57:47;11.40;99.90
55173;DHT22;41061;52.822;6.860;2022-11-15T16:00:13;11.40;99.90
55173;DHT22;41061;52.822;6.860;2022-11-15T16:02:40;11.40;99.90
55173;DHT22;41061;52.822;6.860;2022-11-15T16:05:06;11.30;99.90
55173;DHT22;41061;52.822;6.860;2022-11-15T16:07:32;11.30;99.90
55173;DHT22;41061;52.822;6.860;2022-11-15T16:09:58;11.30;99.90
55173;DHT22;41061;52.822;6.860;2022-11-15T16:12:34;11.30;99.90
55173;DHT22;41061;52.822;6.860;2022-11-15T16:15:00;11.30;99.90
55173;DHT22;41061;52.822;6.860;2022-11-15T16:17:30;11.30;99.90
55173;DHT22;41061;52.822;6.860;2022-11-15T16:19:57;11.30;99.90
55173;DHT22;41061;52.822;6.860;2022-11-15T16:22:22;11.30;99.90
55173;DHT22;41061;52.822;6.860;2022-11-15T16:24:48;11.30;99.90
55173;DHT22;41061;52.822;6.860;2022-11-15T16:27:19;11.30;99.90
55173;DHT22;41061;52.822;6.860;2022-11-15T16:29:46;11.20;99.90
55173;DHT22;41061;52.822;6.860;2022-11-15T16:32:12;11.30;99.90
55173;DHT22;41061;52.822;6.860;2022-11-15T16:34:38;11.30;99.90
55173;DHT22;41061;52.822;6.860;2022-11-15T16:37:04;11.30;99.90
55173;DHT22;41061;52.822;6.860;2022-11-15T16:39:30;11.30;99.90
55173;DHT22;41061;52.822;6.860;2022-11-15T16:41:57;11.30;99.90
55173;DHT22;41061;52.822;6.860;2022-11-15T16:44:23;11.30;99.90
55173;DHT22;41061;52.822;6.860;2022-11-15T16:46:49;11.20;99.90
55173;DHT22;41061;52.822;6.860;2022-11-15T16:49:19;11.30;99.90
55173;DHT22;41061;52.822;6.860;2022-11-15T16:51:46;11.20;99.90
55173;DHT22;41061;52.822;6.860;2022-11-15T16:54:13;11.30;99.90
55173;DHT22;41061;52.822;6.860;2022-11-15T16:56:40;11.30;99.90
55173;DHT22;41061;52.822;6.860;2022-11-15T16:59:06;11.20;99.90
55173;DHT22;41061;52.822;6.860;2022-11-15T17:01:36;11.30;99.90
55173;DHT22;41061;52.822;6.860;2022-11-15T17:04:12;11.30;99.90
55173;DHT22;41061;52.822;6.860;2022-11-15T17:06:42;11.30;99.90
55173;DHT22;41061;52.822;6.860;2022-11-15T17:09:16;11.30;99.90
55173;DHT22;41061;52.822;6.860;2022-11-15T17:11:42;11.30;99.90
55173;DHT22;41061;52.822;6.860;2022-11-15T17:14:08;11.30;99.90
55173;DHT22;41061;52.822;6.860;2022-11-15T17:16:34;11.30;99.90
55173;DHT22;41061;52.822;6.860;2022-11-15T17:19:03;11.30;99.90
55173;DHT22;41061;52.822;6.860;2022-11-15T17:21:29;11.30;99.90
55173;DHT22;41061;52.822;6.860;2022-11-15T17:23:55;11.30;99.90
55173;DHT22;41061;52.822;6.860;2022-11-15T17:26:23;11.30;99.90
55173;DHT22;41061;52.822;6.860;2022-11-15T17:28:53;11.30;99.90
55173;DHT22;41061;52.822;6.860;2022-11-15T17:31:19;11.30;99.90
55173;DHT22;41061;52.822;6.860;2022-11-15T17:33:44;11.30;99.90
55173;DHT22;41061;52.822;6.860;2022-11-15T17:36:11;11.30;99.90
55173;DHT22;41061;52.822;6.860;2022-11-15T17:38:37;11.40;99.90
55173;DHT22;41061;52.822;6.860;2022-11-15T17:41:05;11.40;99.90
55173;DHT22;41061;52.822;6.860;2022-11-15T17:43:32;11.40;99.90
55173;DHT22;41061;52.822;6.860;2022-11-15T17:45:59;11.40;99.90
55173;DHT22;41061;52.822;6.860;2022-11-15T17:48:29;11.40;99.90
55173;DHT22;41061;52.822;6.860;2022-11-15T17:51:00;11.40;99.90
55173;DHT22;41061;52.822;6.860;2022-11-15T17:53:27;11.40;99.90